createdAt,value
2018-09-10T00:00:05.163Z,1.40
2018-09-10T00:01:05.421Z,1.70
2018-09-10T00:02:05.418Z,1.60
2018-09-10T00:03:05.127Z,1.70
2018-09-10T00:04:05.190Z,1.60
2018-09-10T00:05:05.121Z,1.70
2018-09-10T00:06:05.094Z,1.50
2018-09-10T00:07:04.104Z,1.40
2018-09-10T00:08:05.144Z,1.90
2018-09-10T00:09:05.069Z,1.60
2018-09-10T00:10:05.177Z,1.90
2018-09-10T00:11:05.160Z,2.00
2018-09-10T00:12:05.171Z,1.80
2018-09-10T00:13:05.306Z,1.30
2018-09-10T00:14:05.012Z,1.40
2018-09-10T00:15:05.097Z,1.70
2018-09-10T00:16:05.124Z,1.50
2018-09-10T00:17:04.989Z,2.30
2018-09-10T00:18:04.982Z,1.40
2018-09-10T00:19:04.956Z,1.60
2018-09-10T00:20:04.947Z,1.70
2018-09-10T00:21:04.933Z,1.90
2018-09-10T00:22:04.964Z,2.00
2018-09-10T00:23:04.931Z,1.90
2018-09-10T00:24:05.008Z,1.90
2018-09-10T00:25:04.894Z,1.60
2018-09-10T00:26:04.965Z,1.80
2018-09-10T00:27:04.965Z,1.90
2018-09-10T00:28:05.242Z,1.80
2018-09-10T00:29:04.966Z,1.70
2018-09-10T00:30:04.836Z,1.60
2018-09-10T00:31:04.885Z,2.00
2018-09-10T00:32:04.820Z,1.50
2018-09-10T00:33:04.884Z,1.70
2018-09-10T00:34:05.060Z,1.70
2018-09-10T00:35:04.796Z,1.60
2018-09-10T00:36:04.779Z,1.80
2018-09-10T00:37:04.766Z,2.10
2018-09-10T00:38:04.868Z,1.60
2018-09-10T00:39:04.859Z,1.40
2018-09-10T00:40:04.750Z,1.60
2018-09-10T00:41:04.742Z,1.80
2018-09-10T00:42:04.723Z,1.40
2018-09-10T00:43:04.823Z,1.60
2018-09-10T00:44:04.693Z,2.20
2018-09-10T00:45:04.688Z,1.70
2018-09-10T00:46:04.668Z,2.40
2018-09-10T00:47:04.721Z,1.50
2018-09-10T00:48:04.666Z,2.40
2018-09-10T00:49:04.708Z,1.60
2018-09-10T00:50:04.626Z,1.90
2018-09-10T00:51:04.882Z,1.50
2018-09-10T00:52:04.627Z,1.80
2018-09-10T00:53:04.629Z,1.90
2018-09-10T00:54:04.682Z,1.70
2018-09-10T00:55:04.577Z,1.90
2018-09-10T00:56:04.672Z,2.00
2018-09-10T00:57:04.610Z,1.70
2018-09-10T00:58:04.568Z,1.70
2018-09-10T00:59:04.646Z,1.50
2018-09-10T01:00:04.525Z,2.00
2018-09-10T01:01:04.519Z,2.50
2018-09-10T01:02:04.831Z,2.00
2018-09-10T01:03:04.513Z,1.90
2018-09-10T01:04:04.804Z,1.60
2018-09-10T01:05:04.478Z,1.50
2018-09-10T01:06:04.461Z,2.10
2018-09-10T01:07:04.759Z,1.80
2018-09-10T01:08:04.481Z,1.60
2018-09-10T01:09:04.684Z,1.90
2018-09-10T01:10:04.952Z,1.50
2018-09-10T01:11:04.666Z,1.50
2018-09-10T01:12:04.410Z,3.00
2018-09-10T01:13:04.385Z,2.40
2018-09-10T01:14:04.380Z,1.70
2018-09-10T01:15:04.370Z,1.60
2018-09-10T01:16:04.358Z,2.20
2018-09-10T01:17:04.626Z,1.70
2018-09-10T01:18:04.353Z,2.60
2018-09-10T01:19:04.338Z,1.70
2018-09-10T01:20:04.413Z,2.10
2018-09-10T01:21:04.925Z,2.40
2018-09-10T01:22:03.677Z,2.60
2018-09-10T01:23:04.334Z,1.80
2018-09-10T01:24:04.284Z,1.60
2018-09-10T01:25:04.379Z,1.70
2018-09-10T01:26:04.351Z,2.00
2018-09-10T01:27:04.370Z,2.40
2018-09-10T01:28:04.264Z,1.90
2018-09-10T01:29:04.857Z,1.60
2018-09-10T01:30:04.305Z,1.70
2018-09-10T01:31:04.195Z,2.50
2018-09-10T01:32:03.517Z,1.60
2018-09-10T01:33:04.167Z,1.50
2018-09-10T01:34:04.173Z,1.80
2018-09-10T01:35:04.154Z,1.50
2018-09-10T01:36:04.151Z,1.90
2018-09-10T01:37:03.133Z,1.60
2018-09-10T01:38:04.114Z,1.50
2018-09-10T01:39:04.757Z,1.70
2018-09-10T01:40:04.109Z,2.20
2018-09-10T01:41:04.349Z,1.60
2018-09-10T01:42:04.176Z,1.60
2018-09-10T01:43:04.074Z,1.90
2018-09-10T01:44:04.183Z,1.70
2018-09-10T01:45:04.148Z,2.10
2018-09-10T01:46:04.047Z,2.30
2018-09-10T01:47:04.018Z,1.70
2018-09-10T01:48:04.121Z,1.80
2018-09-10T01:49:04.019Z,1.40
2018-09-10T01:50:03.994Z,1.50
2018-09-10T01:51:03.977Z,2.60
2018-09-10T01:52:04.921Z,1.80
2018-09-10T01:53:03.955Z,2.10
2018-09-10T01:54:03.990Z,1.90
2018-09-10T01:55:03.947Z,1.80
2018-09-10T01:56:03.936Z,2.00
2018-09-10T01:57:04.016Z,1.60
2018-09-10T01:58:03.912Z,2.10
2018-09-10T01:59:03.974Z,1.60
2018-09-10T02:00:04.292Z,1.90
2018-09-10T02:01:04.135Z,1.80
2018-09-10T02:02:03.876Z,2.10
2018-09-10T02:03:03.975Z,1.50
2018-09-10T02:04:03.867Z,1.90
2018-09-10T02:05:03.857Z,1.60
2018-09-10T02:06:04.083Z,1.80
2018-09-10T02:07:03.805Z,2.70
2018-09-10T02:08:03.908Z,2.40
2018-09-10T02:09:04.243Z,1.80
2018-09-10T02:10:03.781Z,2.00
2018-09-10T02:11:03.830Z,1.70
2018-09-10T02:12:03.770Z,1.80
2018-09-10T02:13:03.769Z,1.90
2018-09-10T02:14:03.751Z,2.20
2018-09-10T02:15:03.734Z,2.10
2018-09-10T02:16:03.711Z,2.00
2018-09-10T02:17:03.900Z,1.40
2018-09-10T02:18:03.699Z,1.80
2018-09-10T02:19:03.714Z,2.00
2018-09-10T02:20:02.741Z,2.00
2018-09-10T02:21:03.667Z,1.90
2018-09-10T02:22:03.664Z,1.70
2018-09-10T02:23:03.657Z,2.30
2018-09-10T02:24:03.640Z,1.80
2018-09-10T02:25:03.721Z,2.00
2018-09-10T02:26:03.604Z,1.80
2018-09-10T02:27:03.875Z,1.50
2018-09-10T02:28:03.709Z,2.00
2018-09-10T02:29:03.678Z,1.70
2018-09-10T02:30:03.637Z,2.10
2018-09-10T02:31:03.564Z,1.60
2018-09-10T02:32:03.544Z,1.90
2018-09-10T02:33:03.601Z,2.00
2018-09-10T02:34:03.549Z,1.50
2018-09-10T02:35:03.509Z,1.70
2018-09-10T02:36:04.025Z,2.20
2018-09-10T02:37:03.762Z,1.80
2018-09-10T02:38:03.477Z,1.80
2018-09-10T02:39:03.747Z,1.90
2018-09-10T02:40:03.521Z,1.70
2018-09-10T02:41:03.454Z,1.80
2018-09-10T02:42:03.437Z,1.70
2018-09-10T02:43:03.690Z,2.20
2018-09-10T02:44:03.425Z,1.60
2018-09-10T02:45:03.412Z,1.80
2018-09-10T02:46:03.653Z,2.50
2018-09-10T02:47:03.454Z,2.00
2018-09-10T02:48:03.370Z,2.60
2018-09-10T02:49:03.391Z,1.70
2018-09-10T02:50:06.756Z,1.80
2018-09-10T02:51:03.344Z,1.70
2018-09-10T02:52:03.447Z,1.70
2018-09-10T02:53:03.578Z,1.60
2018-09-10T02:54:03.329Z,1.50
2018-09-10T02:55:03.664Z,1.90
2018-09-10T02:56:03.284Z,1.90
2018-09-10T02:57:03.290Z,2.30
2018-09-10T02:58:03.338Z,1.80
2018-09-10T02:59:03.270Z,2.70
2018-09-10T03:00:03.532Z,1.90
2018-09-10T03:01:03.233Z,1.70
2018-09-10T03:02:03.248Z,2.80
2018-09-10T03:03:03.224Z,1.90
2018-09-10T03:04:03.475Z,1.60
2018-09-10T03:05:03.454Z,1.60
2018-09-10T03:06:03.190Z,2.30
2018-09-10T03:07:03.166Z,1.90
2018-09-10T03:08:03.324Z,1.80
2018-09-10T03:09:03.148Z,3.00
2018-09-10T03:10:02.157Z,1.80
2018-09-10T03:11:03.239Z,1.70
2018-09-10T03:12:03.150Z,1.70
2018-09-10T03:13:03.369Z,1.80
2018-09-10T03:14:03.103Z,1.90
2018-09-10T03:15:03.384Z,2.00
2018-09-10T03:16:03.111Z,1.70
2018-09-10T03:17:03.060Z,2.00
2018-09-10T03:18:03.231Z,1.90
2018-09-10T03:19:03.318Z,3.30
2018-09-10T03:20:03.041Z,1.70
2018-09-10T03:21:03.556Z,2.20
2018-09-10T03:22:03.053Z,2.60
2018-09-10T03:23:02.997Z,1.60
2018-09-10T03:24:03.059Z,1.60
2018-09-10T03:25:02.996Z,1.50
2018-09-10T03:26:03.349Z,1.90
2018-09-10T03:27:02.971Z,1.60
2018-09-10T03:28:02.965Z,1.50
2018-09-10T03:29:02.939Z,1.50
2018-09-10T03:30:02.933Z,1.60
2018-09-10T03:31:02.929Z,2.30
2018-09-10T03:32:03.193Z,1.50
2018-09-10T03:33:02.914Z,1.60
2018-09-10T03:34:03.167Z,1.80
2018-09-10T03:35:02.897Z,1.70
2018-09-10T03:36:01.861Z,2.00
2018-09-10T03:37:02.849Z,1.50
2018-09-10T03:38:03.099Z,2.50
2018-09-10T03:39:03.094Z,1.90
2018-09-10T03:40:02.837Z,1.70
2018-09-10T03:41:02.977Z,1.70
2018-09-10T03:42:02.896Z,1.60
2018-09-10T03:43:02.790Z,1.50
2018-09-10T03:44:02.848Z,1.80
2018-09-10T03:45:02.902Z,2.30
2018-09-10T03:46:03.035Z,1.70
2018-09-10T03:47:02.759Z,1.90
2018-09-10T03:48:02.734Z,1.90
2018-09-10T03:49:02.740Z,1.70
2018-09-10T03:50:02.723Z,1.60
2018-09-10T03:51:02.715Z,1.60
2018-09-10T03:52:03.283Z,1.80
2018-09-10T03:53:02.696Z,1.90
2018-09-10T03:54:02.807Z,2.10
2018-09-10T03:55:02.678Z,2.00
2018-09-10T03:56:02.677Z,2.90
2018-09-10T03:57:02.764Z,1.70
2018-09-10T03:58:02.893Z,1.90
2018-09-10T03:59:02.623Z,1.80
2018-09-10T04:00:02.753Z,2.50
2018-09-10T04:01:02.651Z,1.60
2018-09-10T04:02:02.580Z,1.70
2018-09-10T04:03:02.602Z,1.90
2018-09-10T04:04:02.559Z,1.70
2018-09-10T04:05:02.691Z,1.70
2018-09-10T04:06:02.546Z,1.80
2018-09-10T04:07:02.545Z,1.70
2018-09-10T04:08:02.530Z,1.60
2018-09-10T04:09:02.512Z,1.70
2018-09-10T04:10:02.517Z,1.90
2018-09-10T04:11:02.522Z,2.00
2018-09-10T04:12:02.472Z,1.50
2018-09-10T04:13:02.564Z,1.60
2018-09-10T04:14:02.479Z,1.50
2018-09-10T04:15:02.480Z,1.90
2018-09-10T04:16:02.441Z,1.80
2018-09-10T04:17:02.551Z,2.00
2018-09-10T04:18:02.477Z,1.90
2018-09-10T04:19:02.406Z,1.90
2018-09-10T04:20:02.410Z,2.40
2018-09-10T04:21:02.649Z,1.70
2018-09-10T04:22:02.377Z,1.40
2018-09-10T04:23:02.357Z,1.50
2018-09-10T04:24:02.356Z,2.20
2018-09-10T04:25:02.380Z,2.30
2018-09-10T04:26:02.368Z,2.20
2018-09-10T04:27:02.325Z,1.60
2018-09-10T04:28:02.303Z,1.90
2018-09-10T04:29:02.433Z,1.40
2018-09-10T04:30:02.304Z,2.10
2018-09-10T04:31:02.685Z,1.90
2018-09-10T04:32:02.269Z,2.10
2018-09-10T04:33:02.361Z,2.10
2018-09-10T04:34:02.243Z,2.20
2018-09-10T04:35:02.250Z,1.80
2018-09-10T04:36:02.308Z,2.60
2018-09-10T04:37:02.227Z,2.60
2018-09-10T04:38:02.209Z,2.00
2018-09-10T04:39:02.195Z,1.70
2018-09-10T04:40:02.461Z,1.70
2018-09-10T04:41:02.313Z,1.90
2018-09-10T04:42:02.161Z,2.30
2018-09-10T04:43:02.403Z,1.90
2018-09-10T04:44:02.214Z,2.00
2018-09-10T04:45:02.156Z,1.70
2018-09-10T04:46:02.150Z,1.50
2018-09-10T04:47:02.108Z,1.60
2018-09-10T04:48:02.365Z,1.90
2018-09-10T04:49:02.188Z,1.70
2018-09-10T04:50:02.166Z,2.20
2018-09-10T04:51:02.139Z,1.70
2018-09-10T04:52:02.074Z,1.60
2018-09-10T04:53:02.311Z,1.80
2018-09-10T04:54:02.119Z,1.60
2018-09-10T04:55:02.040Z,2.60
2018-09-10T04:56:02.021Z,1.50
2018-09-10T04:57:02.015Z,1.70
2018-09-10T04:58:01.993Z,1.60
2018-09-10T04:59:02.260Z,1.80
2018-09-10T05:00:01.971Z,1.90
2018-09-10T05:01:02.004Z,2.10
2018-09-10T05:02:02.370Z,1.70
2018-09-10T05:03:02.331Z,2.10
2018-09-10T05:04:02.038Z,1.70
2018-09-10T05:05:01.994Z,1.60
2018-09-10T05:06:01.918Z,2.40
2018-09-10T05:07:01.899Z,1.60
2018-09-10T05:08:01.886Z,1.50
2018-09-10T05:09:01.942Z,2.00
2018-09-10T05:10:01.943Z,2.10
2018-09-10T05:11:02.369Z,2.20
2018-09-10T05:12:01.839Z,1.60
2018-09-10T05:13:02.362Z,1.80
2018-09-10T05:14:02.208Z,1.70
2018-09-10T05:15:01.830Z,2.30
2018-09-10T05:16:01.803Z,2.10
2018-09-10T05:17:01.938Z,2.00
2018-09-10T05:18:01.772Z,1.90
2018-09-10T05:19:01.880Z,1.80
2018-09-10T05:20:01.885Z,1.70
2018-09-10T05:21:01.812Z,1.90
2018-09-10T05:22:02.246Z,1.80
2018-09-10T05:23:01.732Z,1.80
2018-09-10T05:24:01.718Z,1.80
2018-09-10T05:25:02.048Z,2.40
2018-09-10T05:26:02.231Z,1.60
2018-09-10T05:27:01.711Z,1.70
2018-09-10T05:28:02.215Z,2.70
2018-09-10T05:29:01.671Z,1.50
2018-09-10T05:30:01.647Z,2.60
2018-09-10T05:31:01.797Z,2.00
2018-09-10T05:32:01.662Z,1.70
2018-09-10T05:33:02.152Z,1.80
2018-09-10T05:34:01.601Z,1.90
2018-09-10T05:35:01.624Z,2.00
2018-09-10T05:36:01.859Z,1.80
2018-09-10T05:37:02.492Z,2.30
2018-09-10T05:38:01.687Z,2.20
2018-09-10T05:39:01.609Z,1.50
2018-09-10T05:40:01.884Z,1.90
2018-09-10T05:41:01.660Z,1.80
2018-09-10T05:42:01.707Z,2.20
2018-09-10T05:43:01.748Z,2.30
2018-09-10T05:44:02.463Z,1.70
2018-09-10T05:45:01.642Z,1.70
2018-09-10T05:46:01.589Z,1.60
2018-09-10T05:47:01.583Z,1.80
2018-09-10T05:48:01.851Z,1.70
2018-09-10T05:49:01.592Z,2.50
2018-09-10T05:50:01.499Z,1.70
2018-09-10T05:51:01.642Z,2.20
2018-09-10T05:52:01.528Z,2.30
2018-09-10T05:53:01.432Z,1.90
2018-09-10T05:54:01.591Z,2.50
2018-09-10T05:55:01.425Z,2.20
2018-09-10T05:56:01.397Z,1.90
2018-09-10T05:57:01.498Z,2.20
2018-09-10T05:58:01.461Z,2.30
2018-09-10T05:59:01.777Z,1.90
2018-09-10T06:00:01.445Z,1.70
2018-09-10T06:01:01.352Z,2.00
2018-09-10T06:02:01.455Z,2.20
2018-09-10T06:03:01.736Z,2.70
2018-09-10T06:04:01.457Z,2.10
2018-09-10T06:05:01.537Z,2.20
2018-09-10T06:06:01.568Z,2.60
2018-09-10T06:07:02.290Z,2.00
2018-09-10T06:08:00.267Z,2.10
2018-09-10T06:09:01.260Z,1.70
2018-09-10T06:10:01.223Z,1.80
2018-09-10T06:11:01.304Z,2.00
2018-09-10T06:12:01.389Z,2.10
2018-09-10T06:13:01.208Z,2.90
2018-09-10T06:14:01.293Z,2.20
2018-09-10T06:15:01.556Z,3.00
2018-09-10T06:16:01.575Z,2.10
2018-09-10T06:17:01.150Z,2.00
2018-09-10T06:18:01.433Z,2.50
2018-09-10T06:19:01.499Z,2.80
2018-09-10T06:20:01.383Z,2.10
2018-09-10T06:21:01.122Z,3.90
2018-09-10T06:22:01.509Z,2.70
2018-09-10T06:23:01.229Z,2.30
2018-09-10T06:24:04.094Z,2.90
2018-09-10T06:25:01.080Z,2.00
2018-09-10T06:26:01.106Z,3.10
2018-09-10T06:27:01.093Z,2.00
2018-09-10T06:28:01.584Z,3.50
2018-09-10T06:29:01.036Z,2.30
2018-09-10T06:30:01.023Z,2.40
2018-09-10T06:31:01.082Z,4.30
2018-09-10T06:32:01.016Z,2.70
2018-09-10T06:33:01.068Z,1.70
2018-09-10T06:34:01.468Z,2.00
2018-09-10T06:35:01.089Z,2.70
2018-09-10T06:36:01.221Z,2.60
2018-09-10T06:37:01.113Z,2.20
2018-09-10T06:38:01.080Z,2.20
2018-09-10T06:39:00.941Z,2.60
2018-09-10T06:40:01.296Z,2.10
2018-09-10T06:41:00.993Z,2.40
2018-09-10T06:42:01.265Z,2.60
2018-09-10T06:43:00.928Z,2.70
2018-09-10T06:44:00.868Z,2.10
2018-09-10T06:45:00.962Z,3.20
2018-09-10T06:46:00.856Z,2.40
2018-09-10T06:47:00.953Z,2.00
2018-09-10T06:48:01.000Z,2.10
2018-09-10T06:49:00.951Z,3.20
2018-09-10T06:50:00.973Z,2.50
2018-09-10T06:51:00.916Z,2.90
2018-09-10T06:52:00.909Z,2.20
2018-09-10T06:53:00.927Z,2.60
2018-09-10T06:54:00.915Z,2.50
2018-09-10T06:55:01.142Z,2.10
2018-09-10T06:56:01.116Z,2.20
2018-09-10T06:57:01.031Z,2.60
2018-09-10T06:58:00.874Z,2.50
2018-09-10T06:59:00.706Z,3.10
2018-09-10T07:00:01.055Z,3.50
2018-09-10T07:01:00.804Z,2.20
2018-09-10T07:02:00.983Z,4.60
2018-09-10T07:03:00.682Z,3.10
2018-09-10T07:04:00.797Z,3.10
2018-09-10T07:05:00.899Z,2.10
2018-09-10T07:06:00.762Z,4.00
2018-09-10T07:07:00.626Z,4.50
2018-09-10T07:08:00.885Z,4.20
2018-09-10T07:09:00.807Z,3.90
2018-09-10T07:10:00.618Z,3.20
2018-09-10T07:11:00.575Z,3.90
2018-09-10T07:12:00.575Z,3.70
2018-09-10T07:13:01.256Z,3.00
2018-09-10T07:14:00.944Z,3.20
2018-09-10T07:15:00.641Z,3.10
2018-09-10T07:16:00.557Z,2.80
2018-09-10T07:17:00.672Z,5.40
2018-09-10T07:18:00.788Z,2.40
2018-09-10T07:19:01.095Z,4.50
2018-09-10T07:20:00.620Z,3.60
2018-09-10T07:21:01.103Z,3.50
2018-09-10T07:22:00.859Z,3.70
2018-09-10T07:23:00.628Z,3.60
2018-09-10T07:24:00.560Z,4.10
2018-09-10T07:25:00.426Z,3.50
2018-09-10T07:26:00.468Z,4.50
2018-09-10T07:27:02.872Z,4.60
2018-09-10T07:28:00.791Z,5.00
2018-09-10T07:29:00.521Z,3.70
2018-09-10T07:30:00.374Z,4.30
2018-09-10T07:31:00.512Z,3.90
2018-09-10T07:32:00.381Z,2.80
2018-09-10T07:33:00.524Z,3.70
2018-09-10T07:34:00.893Z,3.60
2018-09-10T07:35:01.748Z,6.20
2018-09-10T07:36:00.339Z,3.90
2018-09-10T07:37:00.754Z,4.80
2018-09-10T07:38:00.871Z,4.20
2018-09-10T07:39:00.418Z,4.30
2018-09-10T07:40:00.275Z,3.60
2018-09-10T07:41:00.270Z,5.30
2018-09-10T07:42:00.287Z,3.70
2018-09-10T07:43:00.477Z,3.60
2018-09-10T07:44:01.037Z,5.50
2018-09-10T07:45:00.240Z,11.30
2018-09-10T07:46:00.291Z,3.80
2018-09-10T07:47:00.248Z,3.50
2018-09-10T07:48:00.895Z,4.20
2018-09-10T07:49:00.391Z,4.90
2018-09-10T07:50:00.167Z,6.30
2018-09-10T07:51:00.177Z,5.30
2018-09-10T07:52:00.283Z,4.60
2018-09-10T07:53:00.257Z,3.80
2018-09-10T07:54:01.170Z,5.60
2018-09-10T07:55:00.229Z,3.70
2018-09-10T07:56:00.238Z,4.50
2018-09-10T07:57:00.388Z,4.60
2018-09-10T07:58:00.409Z,3.90
2018-09-10T07:59:00.085Z,4.20
2018-09-10T08:00:00.065Z,3.70
2018-09-10T08:01:00.378Z,3.60
2018-09-10T08:02:01.239Z,5.40
2018-09-10T08:03:00.031Z,5.70
2018-09-10T08:04:00.990Z,4.30
2018-09-10T08:05:00.111Z,4.00
2018-09-10T08:06:00.004Z,4.10
2018-09-10T08:07:00.390Z,4.10
2018-09-10T08:08:00.046Z,3.40
2018-09-10T08:08:59.997Z,3.90
2018-09-10T08:10:00.011Z,3.90
2018-09-10T08:10:59.973Z,2.90
2018-09-10T08:12:00.373Z,7.70
2018-09-10T08:12:59.991Z,5.00
2018-09-10T08:14:00.078Z,5.50
2018-09-10T08:14:59.989Z,4.50
2018-09-10T08:15:59.876Z,4.80
2018-09-10T08:16:59.890Z,6.20
2018-09-10T08:17:59.858Z,8.80
2018-09-10T08:19:00.134Z,7.20
2018-09-10T08:19:59.926Z,12.60
2018-09-10T08:21:00.089Z,12.20
2018-09-10T08:21:59.831Z,9.50
2018-09-10T08:22:59.821Z,7.10
2018-09-10T08:23:59.980Z,10.60
2018-09-10T08:24:59.836Z,8.00
2018-09-10T08:25:59.787Z,8.90
2018-09-10T08:27:00.096Z,10.40
2018-09-10T08:27:59.908Z,19.20
2018-09-10T08:28:59.880Z,15.80
2018-09-10T08:29:59.902Z,17.60
2018-09-10T08:30:59.730Z,14.50
2018-09-10T08:31:59.724Z,11.10
2018-09-10T08:33:00.030Z,13.50
2018-09-10T08:34:02.576Z,13.60
2018-09-10T08:35:00.893Z,12.40
2018-09-10T08:35:59.691Z,13.80
2018-09-10T08:36:59.792Z,20.50
2018-09-10T08:37:59.674Z,16.50
2018-09-10T08:38:59.914Z,15.30
2018-09-10T08:39:59.752Z,14.40
2018-09-10T08:40:59.642Z,19.50
2018-09-10T08:41:59.738Z,11.80
2018-09-10T08:43:00.216Z,13.50
2018-09-10T08:43:59.626Z,16.20
2018-09-10T08:44:59.629Z,9.70
2018-09-10T08:45:59.599Z,18.40
2018-09-10T08:46:59.596Z,16.80
2018-09-10T08:47:59.837Z,12.10
2018-09-10T08:48:59.654Z,15.20
2018-09-10T08:49:59.656Z,24.00
2018-09-10T08:50:59.706Z,17.80
2018-09-10T08:51:59.775Z,25.80
2018-09-10T08:52:59.515Z,25.80
2018-09-10T08:53:59.672Z,19.40
2018-09-10T08:54:59.788Z,18.80
2018-09-10T08:55:59.685Z,17.10
2018-09-10T08:56:59.517Z,22.20
2018-09-10T08:57:59.439Z,18.80
2018-09-10T08:58:59.702Z,22.10
2018-09-10T08:59:59.683Z,15.70
2018-09-10T09:00:59.437Z,20.70
2018-09-10T09:01:59.522Z,22.30
2018-09-10T09:02:59.394Z,22.50
2018-09-10T09:03:59.655Z,15.50
2018-09-10T09:04:59.390Z,21.80
2018-09-10T09:05:59.383Z,23.20
2018-09-10T09:06:59.382Z,19.80
2018-09-10T09:07:59.511Z,21.10
2018-09-10T09:08:59.308Z,22.50
2018-09-10T09:09:59.324Z,19.00
2018-09-10T09:10:59.339Z,21.10
2018-09-10T09:11:59.388Z,14.40
2018-09-10T09:12:59.368Z,15.90
2018-09-10T09:13:59.346Z,20.10
2018-09-10T09:14:59.281Z,14.70
2018-09-10T09:15:59.262Z,17.50
2018-09-10T09:16:59.250Z,16.80
2018-09-10T09:17:59.706Z,18.30
2018-09-10T09:18:59.268Z,17.10
2018-09-10T09:19:59.207Z,20.20
2018-09-10T09:20:59.491Z,14.50
2018-09-10T09:21:59.326Z,11.20
2018-09-10T09:22:59.168Z,14.10
2018-09-10T09:23:59.168Z,20.30
2018-09-10T09:24:59.160Z,13.00
2018-09-10T09:25:59.527Z,15.10
2018-09-10T09:26:59.330Z,14.10
2018-09-10T09:27:59.175Z,14.30
2018-09-10T09:28:59.123Z,18.20
2018-09-10T09:29:59.238Z,12.60
2018-09-10T09:30:59.183Z,10.90
2018-09-10T09:31:59.095Z,10.50
2018-09-10T09:32:59.218Z,11.20
2018-09-10T09:33:59.056Z,10.90
2018-09-10T09:34:59.054Z,11.90
2018-09-10T09:35:59.513Z,11.00
2018-09-10T09:36:59.037Z,12.60
2018-09-10T09:37:59.100Z,12.40
2018-09-10T09:38:59.127Z,13.00
2018-09-10T09:39:59.036Z,11.10
2018-09-10T09:40:59.042Z,7.80
2018-09-10T09:41:58.970Z,9.60
2018-09-10T09:42:59.086Z,10.10
2018-09-10T09:43:59.288Z,10.10
2018-09-10T09:44:59.083Z,10.40
2018-09-10T09:45:58.930Z,9.40
2018-09-10T09:46:58.914Z,10.60
2018-09-10T09:47:58.940Z,12.30
2018-09-10T09:48:59.344Z,14.30
2018-09-10T09:49:59.470Z,9.50
2018-09-10T09:50:58.901Z,13.50
2018-09-10T09:51:58.975Z,6.90
2018-09-10T09:52:58.992Z,9.80
2018-09-10T09:53:58.854Z,8.30
2018-09-10T09:54:58.934Z,8.80
2018-09-10T09:55:59.024Z,9.60
2018-09-10T09:56:59.635Z,6.50
2018-09-10T09:57:58.899Z,9.80
2018-09-10T09:58:58.822Z,11.40
2018-09-10T09:59:58.817Z,12.80
2018-09-10T10:00:59.183Z,7.30
2018-09-10T10:01:59.048Z,12.70
2018-09-10T10:02:58.763Z,9.80
2018-09-10T10:03:58.741Z,7.90
2018-09-10T10:04:58.996Z,10.50
2018-09-10T10:05:58.729Z,9.60
2018-09-10T10:06:58.885Z,7.50
2018-09-10T10:07:58.727Z,11.30
2018-09-10T10:08:58.794Z,11.60
2018-09-10T10:09:59.067Z,7.70
2018-09-10T10:10:58.798Z,5.90
2018-09-10T10:11:58.912Z,10.50
2018-09-10T10:12:58.694Z,8.80
2018-09-10T10:13:58.639Z,7.60
2018-09-10T10:14:58.650Z,7.40
2018-09-10T10:15:58.643Z,9.10
2018-09-10T10:16:58.613Z,6.90
2018-09-10T10:17:58.653Z,8.80
2018-09-10T10:18:58.586Z,10.90
2018-09-10T10:19:59.124Z,10.60
2018-09-10T10:20:58.578Z,5.80
2018-09-10T10:21:58.571Z,7.80
2018-09-10T10:22:58.546Z,7.60
2018-09-10T10:23:58.523Z,7.40
2018-09-10T10:24:58.544Z,9.00
2018-09-10T10:25:58.578Z,5.40
2018-09-10T10:26:58.569Z,7.80
2018-09-10T10:27:58.498Z,7.70
2018-09-10T10:28:58.761Z,6.00
2018-09-10T10:29:58.488Z,8.30
2018-09-10T10:30:58.571Z,5.80
2018-09-10T10:31:58.493Z,5.90
2018-09-10T10:32:58.685Z,5.30
2018-09-10T10:33:58.780Z,7.20
2018-09-10T10:34:58.550Z,5.10
2018-09-10T10:35:58.554Z,7.40
2018-09-10T10:36:58.499Z,7.70
2018-09-10T10:37:58.364Z,7.30
2018-09-10T10:38:58.679Z,7.30
2018-09-10T10:39:58.486Z,10.70
2018-09-10T10:40:59.030Z,8.80
2018-09-10T10:41:58.353Z,6.40
2018-09-10T10:42:58.413Z,8.90
2018-09-10T10:43:58.301Z,6.40
2018-09-10T10:44:58.506Z,5.90
2018-09-10T10:45:58.462Z,6.80
2018-09-10T10:46:58.269Z,6.80
2018-09-10T10:47:58.352Z,7.90
2018-09-10T10:48:58.418Z,7.80
2018-09-10T10:49:58.358Z,6.50
2018-09-10T10:50:58.257Z,10.00
2018-09-10T10:51:58.463Z,11.10
2018-09-10T10:52:58.223Z,5.60
2018-09-10T10:54:02.383Z,5.90
2018-09-10T10:54:58.210Z,7.70
2018-09-10T10:55:58.183Z,6.80
2018-09-10T10:56:58.305Z,8.60
2018-09-10T10:57:58.278Z,8.70
2018-09-10T10:58:58.157Z,7.10
2018-09-10T10:59:58.142Z,8.70
2018-09-10T11:00:58.132Z,14.20
2018-09-10T11:01:58.126Z,9.80
2018-09-10T11:02:58.120Z,6.70
2018-09-10T11:03:58.266Z,11.20
2018-09-10T11:04:58.101Z,10.20
2018-09-10T11:05:58.389Z,9.80
2018-09-10T11:06:58.074Z,10.30
2018-09-10T11:07:58.047Z,14.00
2018-09-10T11:08:58.320Z,11.70
2018-09-10T11:09:58.232Z,10.00
2018-09-10T11:10:58.028Z,9.40
2018-09-10T11:11:58.198Z,12.30
2018-09-10T11:12:58.059Z,8.90
2018-09-10T11:13:58.028Z,11.60
2018-09-10T11:14:58.009Z,9.50
2018-09-10T11:15:58.120Z,12.60
2018-09-10T11:16:57.990Z,8.50
2018-09-10T11:17:57.948Z,8.00
2018-09-10T11:18:58.390Z,6.90
2018-09-10T11:19:58.112Z,7.50
2018-09-10T11:20:56.934Z,7.80
2018-09-10T11:21:58.129Z,12.00
2018-09-10T11:22:57.941Z,14.30
2018-09-10T11:23:58.005Z,18.70
2018-09-10T11:24:58.179Z,18.20
2018-09-10T11:25:58.424Z,23.60
2018-09-10T11:26:57.869Z,19.90
2018-09-10T11:27:58.161Z,19.90
2018-09-10T11:28:57.864Z,24.40
2018-09-10T11:29:57.988Z,16.60
2018-09-10T11:30:57.834Z,17.00
2018-09-10T11:32:00.878Z,23.40
2018-09-10T11:32:57.803Z,15.30
2018-09-10T11:33:57.931Z,19.50
2018-09-10T11:34:57.773Z,21.70
2018-09-10T11:35:57.776Z,21.50
2018-09-10T11:36:57.776Z,16.30
2018-09-10T11:37:58.392Z,22.70
2018-09-10T11:38:57.870Z,25.70
2018-09-10T11:39:58.251Z,20.30
2018-09-10T11:40:57.770Z,33.10
2018-09-10T11:41:57.748Z,23.70
2018-09-10T11:42:57.735Z,23.00
2018-09-10T11:43:57.695Z,28.90
2018-09-10T11:44:57.702Z,22.80
2018-09-10T11:45:57.867Z,28.50
2018-09-10T11:46:57.929Z,22.40
2018-09-10T11:47:57.650Z,25.50
2018-09-10T11:48:57.625Z,21.80
2018-09-10T11:49:57.607Z,30.20
2018-09-10T11:50:58.263Z,23.50
2018-09-10T11:51:57.639Z,27.00
2018-09-10T11:52:57.605Z,23.40
2018-09-10T11:53:57.745Z,25.30
2018-09-10T11:54:57.643Z,25.30
2018-09-10T11:55:57.544Z,23.00
2018-09-10T11:56:57.595Z,24.50
2018-09-10T11:57:57.548Z,22.60
2018-09-10T11:58:57.623Z,22.50
2018-09-10T11:59:57.584Z,25.10
2018-09-10T12:00:57.594Z,24.20
2018-09-10T12:01:57.541Z,17.50
2018-09-10T12:02:57.559Z,19.30
2018-09-10T12:03:58.131Z,23.80
2018-09-10T12:04:57.507Z,23.10
2018-09-10T12:05:57.448Z,22.40
2018-09-10T12:06:57.428Z,19.70
2018-09-10T12:07:57.522Z,16.10
2018-09-10T12:08:57.427Z,19.80
2018-09-10T12:09:57.410Z,17.00
2018-09-10T12:10:57.470Z,18.90
2018-09-10T12:11:57.411Z,16.50
2018-09-10T12:12:57.522Z,17.20
2018-09-10T12:13:57.496Z,20.30
2018-09-10T12:14:57.465Z,14.80
2018-09-10T12:15:57.328Z,13.70
2018-09-10T12:16:57.351Z,20.10
2018-09-10T12:17:57.329Z,19.00
2018-09-10T12:18:57.524Z,10.90
2018-09-10T12:19:57.431Z,12.00
2018-09-10T12:20:57.480Z,12.80
2018-09-10T12:21:57.297Z,20.40
2018-09-10T12:22:57.467Z,12.70
2018-09-10T12:23:57.270Z,19.80
2018-09-10T12:24:57.248Z,19.30
2018-09-10T12:25:58.319Z,17.20
2018-09-10T12:26:57.229Z,21.90
2018-09-10T12:27:59.124Z,15.30
2018-09-10T12:28:57.191Z,13.60
2018-09-10T12:29:57.336Z,12.40
2018-09-10T12:30:57.303Z,12.70
2018-09-10T12:31:57.183Z,14.10
2018-09-10T12:32:57.163Z,13.60
2018-09-10T12:33:57.206Z,16.00
2018-09-10T12:35:14.157Z,14.30
2018-09-10T12:36:34.533Z,15.40
2018-09-10T12:37:10.569Z,12.80
2018-09-10T12:39:10.754Z,14.40
2018-09-10T12:40:11.235Z,12.70
2018-09-10T12:41:33.145Z,9.90
2018-09-10T12:42:11.571Z,10.70
2018-09-10T12:43:21.547Z,12.40
2018-09-10T12:43:57.095Z,11.60
2018-09-10T12:44:57.051Z,8.50
2018-09-10T12:45:57.691Z,11.10
2018-09-10T12:46:59.440Z,11.60
2018-09-10T12:47:57.294Z,9.80
2018-09-10T12:48:57.718Z,8.40
2018-09-10T12:49:56.992Z,11.40
2018-09-10T12:50:56.969Z,10.10
2018-09-10T12:51:56.959Z,9.30
2018-09-10T12:52:56.990Z,10.10
2018-09-10T12:53:57.211Z,8.90
2018-09-10T12:54:56.916Z,8.50
2018-09-10T12:55:56.925Z,8.90
2018-09-10T12:56:56.903Z,12.60
2018-09-10T12:58:05.786Z,11.20
2018-09-10T12:58:57.652Z,10.90
2018-09-10T12:59:57.144Z,8.50
2018-09-10T13:00:57.132Z,10.70
2018-09-10T13:01:56.886Z,9.80
2018-09-10T13:02:56.858Z,10.60
2018-09-10T13:03:56.831Z,8.70
2018-09-10T13:04:56.833Z,8.20
2018-09-10T13:05:56.808Z,8.40
2018-09-10T13:06:56.809Z,9.00
2018-09-10T13:07:56.796Z,7.20
2018-09-10T13:08:56.778Z,7.90
2018-09-10T13:09:56.758Z,10.70
2018-09-10T13:10:59.500Z,8.00
2018-09-10T13:11:56.757Z,7.80